Time;durP1;ratioP1;P1;durP2;ratioP2;P2;SDS_P1;SDS_P2;PMS_P1;PMS_P2;Temp;Humidity;BMP_temperature;BMP_pressure;BME280_temperature;BME280_humidity;BME280_pressure;Samples;Min_cycle;Max_cycle;Signal;HPM_P1;HPM_P2
2022/06/22 00:00:18;;;;;;;10.32;7.10;;;;;;;;;;5053217;28;20102;-71
2022/06/22 00:02:46;;;;;;;14.43;10.30;;;;;;;;;;5048427;28;20047;-71
2022/06/22 00:05:21;;;;;;;13.52;9.80;;;;;;;;;;5036569;28;20603;-71
2022/06/22 00:07:51;;;;;;;12.30;9.85;;;;;;;;;;5054684;28;20586;-70
2022/06/22 00:10:17;;;;;;;13.00;10.50;;;;;;;;;;5053877;28;20049;-69
2022/06/22 00:12:48;;;;;;;12.50;10.32;;;;;;;;;;5049932;28;20037;-71
2022/06/22 00:15:38;;;;;;;13.45;10.23;;;;;;;;;;5034942;28;20041;-70
2022/06/22 00:18:19;;;;;;;12.07;10.43;;;;;;;;;;5041919;28;20040;-70
2022/06/22 00:20:50;;;;;;;11.73;10.05;;;;;;;;;;5054773;28;20045;-70
2022/06/22 00:23:16;;;;;;;15.18;10.35;;;;;;;;;;5050163;28;20041;-70
2022/06/22 00:25:42;;;;;;;15.57;11.02;;;;;;;;;;5053161;28;20045;-70
2022/06/22 00:28:25;;;;;;;13.52;9.85;;;;;;;;;;5051870;28;20075;-70
2022/06/22 00:30:58;;;;;;;12.38;9.48;;;;;;;;;;5035016;28;20047;-70
2022/06/22 00:33:24;;;;;;;15.07;10.52;;;;;;;;;;5030289;28;20056;-70
2022/06/22 00:35:53;;;;;;;14.02;9.68;;;;;;;;;;5054429;28;20049;-70
2022/06/22 00:38:32;;;;;;;14.48;10.73;;;;;;;;;;5051797;28;20041;-70
2022/06/22 00:41:01;;;;;;;14.07;10.15;;;;;;;;;;5052074;28;20076;-71
2022/06/22 00:43:32;;;;;;;12.50;9.73;;;;;;;;;;5047471;28;20574;-70
2022/06/22 00:45:59;;;;;;;12.60;9.57;;;;;;;;;;5052013;28;20041;-70
2022/06/22 00:48:33;;;;;;;13.98;11.88;;;;;;;;;;5051534;28;20049;-70
2022/06/22 00:50:59;;;;;;;16.35;11.88;;;;;;;;;;5054419;28;20475;-71
2022/06/22 00:53:33;;;;;;;14.80;11.20;;;;;;;;;;5031416;28;20049;-71
2022/06/22 00:55:59;;;;;;;16.85;13.18;;;;;;;;;;5053525;28;20048;-70
2022/06/22 00:58:46;;;;;;;17.25;14.50;;;;;;;;;;5051311;28;20045;-71
2022/06/22 01:01:21;;;;;;;17.02;13.38;;;;;;;;;;5052488;28;20055;-71
2022/06/22 01:03:51;;;;;;;18.42;12.15;;;;;;;;;;5034345;28;20102;-71
2022/06/22 01:06:26;;;;;;;13.05;11.55;;;;;;;;;;5017001;28;20049;-71
2022/06/22 01:08:55;;;;;;;11.88;10.35;;;;;;;;;;5053352;28;20053;-71
2022/06/22 01:14:22;;;;;;;11.43;8.27;;;;;;;;;;5048069;28;20049;-71
2022/06/22 01:16:50;;;;;;;11.50;9.10;;;;;;;;;;5052164;28;20491;-71
2022/06/22 01:19:22;;;;;;;12.15;9.52;;;;;;;;;;5033412;28;20128;-71
2022/06/22 01:21:52;;;;;;;12.85;8.85;;;;;;;;;;5049466;28;20095;-71
2022/06/22 01:24:29;;;;;;;12.13;9.15;;;;;;;;;;5050972;28;20384;-71
2022/06/22 01:27:19;;;;;;;10.10;7.82;;;;;;;;;;5052597;28;20037;-70
2022/06/22 01:29:50;;;;;;;11.88;8.13;;;;;;;;;;5050817;28;20098;-70
2022/06/22 01:32:20;;;;;;;10.43;7.50;;;;;;;;;;5050666;28;20033;-70
2022/06/22 01:34:47;;;;;;;9.48;7.78;;;;;;;;;;5043998;28;20041;-70
2022/06/22 01:37:15;;;;;;;8.57;6.85;;;;;;;;;;5049823;28;20091;-70
2022/06/22 01:39:42;;;;;;;9.75;6.75;;;;;;;;;;5032787;28;20458;-70
2022/06/22 01:42:19;;;;;;;8.43;6.43;;;;;;;;;;5051119;28;20052;-71
2022/06/22 01:44:51;;;;;;;9.88;6.15;;;;;;;;;;5042769;28;20052;-69
2022/06/22 01:47:36;;;;;;;8.25;5.38;;;;;;;;;;5048738;28;20091;-70
2022/06/22 01:50:02;;;;;;;7.40;4.88;;;;;;;;;;5050409;28;20087;-70
2022/06/22 01:52:46;;;;;;;6.20;4.60;;;;;;;;;;5048006;28;20514;-71
2022/06/22 01:55:25;;;;;;;5.50;4.57;;;;;;;;;;5018280;28;20045;-71
2022/06/22 01:57:56;;;;;;;6.53;5.20;;;;;;;;;;5051456;28;20041;-71
2022/06/22 02:00:22;;;;;;;8.70;5.70;;;;;;;;;;5052787;28;20114;-70
2022/06/22 02:03:01;;;;;;;7.57;6.15;;;;;;;;;;5032084;28;20131;-70
2022/06/22 02:05:30;;;;;;;7.60;5.50;;;;;;;;;;5050872;28;20053;-70
2022/06/22 02:07:59;;;;;;;6.78;5.32;;;;;;;;;;5032283;28;20080;-71
2022/06/22 02:10:28;;;;;;;8.18;5.28;;;;;;;;;;5052390;28;20037;-71
2022/06/22 02:13:02;;;;;;;8.43;5.95;;;;;;;;;;5053092;28;20534;-71
2022/06/22 02:15:34;;;;;;;8.38;6.03;;;;;;;;;;5058349;28;20127;-70
2022/06/22 02:18:02;;;;;;;7.20;5.22;;;;;;;;;;5058717;28;20178;-70
2022/06/22 02:20:33;;;;;;;13.18;6.85;;;;;;;;;;5038523;28;20068;-71
2022/06/22 02:23:02;;;;;;;18.75;9.25;;;;;;;;;;5056741;28;20045;-71
2022/06/22 02:25:30;;;;;;;60.15;10.82;;;;;;;;;;5058043;28;20037;-71
2022/06/22 02:27:56;;;;;;;40.60;11.43;;;;;;;;;;5058442;28;20179;-71
2022/06/22 02:30:23;;;;;;;23.10;10.43;;;;;;;;;;5038542;28;20049;-71
2022/06/22 02:32:49;;;;;;;97.25;10.40;;;;;;;;;;5055902;28;20033;-71
2022/06/22 02:35:16;;;;;;;74.38;9.55;;;;;;;;;;5056175;28;20112;-70
2022/06/22 02:37:44;;;;;;;11.23;7.10;;;;;;;;;;5036702;28;20119;-70
2022/06/22 02:40:12;;;;;;;35.95;8.75;;;;;;;;;;5059296;28;20048;-71
2022/06/22 02:45:24;;;;;;;112.40;11.85;;;;;;;;;;5057463;28;20045;-71
2022/06/22 02:47:56;;;;;;;29.67;12.75;;;;;;;;;;5057857;28;20041;-71
2022/06/22 02:50:22;;;;;;;13.10;11.70;;;;;;;;;;5055645;28;20045;-71
2022/06/22 02:52:50;;;;;;;12.27;10.98;;;;;;;;;;5039960;28;20135;-70
2022/06/22 02:55:17;;;;;;;36.22;11.77;;;;;;;;;;5039405;28;20049;-71
2022/06/22 02:57:48;;;;;;;99.00;14.07;;;;;;;;;;5058113;28;20041;-70
2022/06/22 03:00:16;;;;;;;153.77;14.45;;;;;;;;;;5039422;28;20110;-71
2022/06/22 03:02:42;;;;;;;34.33;15.00;;;;;;;;;;5049312;28;20049;-71
2022/06/22 03:05:10;;;;;;;110.35;14.82;;;;;;;;;;5039845;28;20455;-70
2022/06/22 03:07:38;;;;;;;38.85;12.75;;;;;;;;;;5056203;28;20040;-71
2022/06/22 03:10:05;;;;;;;16.95;10.60;;;;;;;;;;5057974;28;20045;-70
2022/06/22 03:12:32;;;;;;;40.25;9.65;;;;;;;;;;5049678;28;20092;-70
2022/06/22 03:15:01;;;;;;;10.10;9.05;;;;;;;;;;5055906;28;20044;-71
2022/06/22 03:17:30;;;;;;;12.45;9.07;;;;;;;;;;5058785;28;20395;-70
2022/06/22 03:20:01;;;;;;;13.63;7.90;;;;;;;;;;5056813;28;20080;-70
2022/06/22 03:22:34;;;;;;;8.80;7.90;;;;;;;;;;5040866;28;20429;-71
2022/06/22 03:25:27;;;;;;;16.15;8.10;;;;;;;;;;5052300;28;20052;-71
2022/06/22 03:27:55;;;;;;;36.65;9.13;;;;;;;;;;5023623;28;20060;-71
2022/06/22 03:30:23;;;;;;;44.70;7.45;;;;;;;;;;5036042;28;20049;-71
2022/06/22 03:32:51;;;;;;;47.85;8.48;;;;;;;;;;5044801;28;20041;-71
2022/06/22 03:35:30;;;;;;;59.35;9.15;;;;;;;;;;5034530;28;20522;-71
2022/06/22 03:38:08;;;;;;;66.93;8.75;;;;;;;;;;5045606;28;20091;-71
2022/06/22 03:40:47;;;;;;;93.78;8.23;;;;;;;;;;5055264;28;20136;-70
2022/06/22 03:43:18;;;;;;;66.72;8.43;;;;;;;;;;5051028;28;20119;-70
2022/06/22 03:45:47;;;;;;;87.03;8.27;;;;;;;;;;5048527;28;20068;-70
2022/06/22 03:48:18;;;;;;;74.28;8.93;;;;;;;;;;5035195;28;20050;-70
2022/06/22 03:50:44;;;;;;;42.35;9.40;;;;;;;;;;5042717;28;20126;-70
2022/06/22 03:53:10;;;;;;;56.60;8.52;;;;;;;;;;5053931;28;20128;-70
2022/06/22 03:55:38;;;;;;;29.90;6.90;;;;;;;;;;5052357;28;20046;-71
2022/06/22 03:58:06;;;;;;;12.68;7.07;;;;;;;;;;5054776;28;20495;-72
2022/06/22 04:00:34;;;;;;;22.83;7.18;;;;;;;;;;5054884;28;20411;-70
2022/06/22 04:03:00;;;;;;;48.60;6.97;;;;;;;;;;5051909;28;20571;-71
2022/06/22 04:05:27;;;;;;;30.65;6.63;;;;;;;;;;5052960;28;20128;-71
2022/06/22 04:07:54;;;;;;;31.13;6.40;;;;;;;;;;5054122;28;20045;-71
2022/06/22 04:10:40;;;;;;;30.55;6.80;;;;;;;;;;5052282;28;20056;-71
2022/06/22 04:13:10;;;;;;;21.27;7.05;;;;;;;;;;5036947;28;20045;-71
2022/06/22 04:15:42;;;;;;;55.60;8.68;;;;;;;;;;5054454;28;20139;-71
2022/06/22 04:18:17;;;;;;;25.08;9.32;;;;;;;;;;5033318;28;20033;-72
2022/06/22 04:20:50;;;;;;;28.27;8.10;;;;;;;;;;5047874;28;20072;-72
2022/06/22 04:23:32;;;;;;;18.00;7.68;;;;;;;;;;5052919;28;20036;-71
2022/06/22 04:26:12;;;;;;;10.90;7.35;;;;;;;;;;5053240;28;20041;-72
2022/06/22 04:28:41;;;;;;;10.80;6.87;;;;;;;;;;5053641;28;20106;-71
2022/06/22 04:31:10;;;;;;;10.35;7.05;;;;;;;;;;5054365;28;20626;-71
2022/06/22 04:33:40;;;;;;;10.23;6.72;;;;;;;;;;5051222;28;20132;-72
2022/06/22 04:36:12;;;;;;;10.82;7.07;;;;;;;;;;5033471;28;20045;-70
2022/06/22 04:38:39;;;;;;;15.93;9.07;;;;;;;;;;5051755;28;20033;-69
2022/06/22 04:41:13;;;;;;;14.95;8.57;;;;;;;;;;5051385;28;20057;-71
2022/06/22 04:43:40;;;;;;;15.57;9.50;;;;;;;;;;5022277;28;20037;-71
2022/06/22 04:46:07;;;;;;;16.90;10.00;;;;;;;;;;5044737;28;20045;-71
2022/06/22 04:48:39;;;;;;;15.35;10.77;;;;;;;;;;5034053;28;20045;-71
2022/06/22 04:51:05;;;;;;;15.52;10.57;;;;;;;;;;5028390;28;20525;-71
2022/06/22 04:53:37;;;;;;;14.00;10.07;;;;;;;;;;5053376;28;20041;-71
2022/06/22 04:56:03;;;;;;;;;;;;;;;;;;5053616;28;20524;-70
2022/06/22 04:58:34;;;;;;;15.55;11.80;;;;;;;;;;5052791;28;20302;-72
2022/06/22 05:01:00;;;;;;;16.35;12.95;;;;;;;;;;5053792;28;20083;-72
2022/06/22 05:03:27;;;;;;;13.82;12.10;;;;;;;;;;5051583;28;20066;-71
2022/06/22 05:05:54;;;;;;;17.15;13.50;;;;;;;;;;5051383;28;20044;-71
2022/06/22 05:08:27;;;;;;;20.42;13.80;;;;;;;;;;5052458;28;20079;-71
2022/06/22 05:11:05;;;;;;;16.70;13.68;;;;;;;;;;5051324;28;20094;-71
2022/06/22 05:13:42;;;;;;;16.50;13.32;;;;;;;;;;5051626;28;20041;-70
2022/06/22 05:16:12;;;;;;;17.60;13.60;;;;;;;;;;5052194;28;20389;-70
2022/06/22 05:18:42;;;;;;;18.70;13.45;;;;;;;;;;5052047;28;20091;-71
2022/06/22 05:21:17;;;;;;;16.83;13.63;;;;;;;;;;5051363;28;20048;-70
2022/06/22 05:23:45;;;;;;;18.38;14.75;;;;;;;;;;5052614;28;20385;-72
2022/06/22 05:26:11;;;;;;;16.27;12.95;;;;;;;;;;5035316;28;20040;-71
2022/06/22 05:28:45;;;;;;;18.60;12.75;;;;;;;;;;5016884;28;20403;-71
2022/06/22 05:31:13;;;;;;;21.85;13.88;;;;;;;;;;5053381;28;20138;-71
2022/06/22 05:33:40;;;;;;;17.45;12.82;;;;;;;;;;5051547;28;20091;-71
2022/06/22 05:36:08;;;;;;;15.63;11.20;;;;;;;;;;5050478;28;20167;-71
2022/06/22 05:38:40;;;;;;;14.70;10.85;;;;;;;;;;5036553;28;20037;-71
2022/06/22 05:41:07;;;;;;;14.07;10.63;;;;;;;;;;5035008;28;20053;-71
2022/06/22 05:43:34;;;;;;;13.02;10.20;;;;;;;;;;5030552;28;20080;-71
2022/06/22 05:46:02;;;;;;;14.23;10.57;;;;;;;;;;5052208;28;20458;-72
2022/06/22 05:48:29;;;;;;;12.20;10.05;;;;;;;;;;5050199;28;20415;-71
2022/06/22 05:50:55;;;;;;;12.68;9.48;;;;;;;;;;5052615;28;20377;-72
2022/06/22 05:53:42;;;;;;;12.45;8.80;;;;;;;;;;5051621;28;20095;-70
2022/06/22 05:56:29;;;;;;;12.15;9.48;;;;;;;;;;5051190;28;20045;-72
2022/06/22 05:59:14;;;;;;;15.98;10.45;;;;;;;;;;5015115;28;20058;-72
2022/06/22 06:01:45;;;;;;;12.02;8.95;;;;;;;;;;5025421;28;20052;-71
2022/06/22 06:04:33;;;;;;;12.38;9.02;;;;;;;;;;5036210;28;20109;-70
2022/06/22 06:07:14;;;;;;;12.38;9.32;;;;;;;;;;5051857;28;20495;-71
2022/06/22 06:09:40;;;;;;;13.60;9.30;;;;;;;;;;5046572;28;20499;-70
2022/06/22 06:12:13;;;;;;;13.18;7.93;;;;;;;;;;5050103;28;20487;-71
2022/06/22 06:14:40;;;;;;;11.65;6.93;;;;;;;;;;5030983;28;20051;-71
2022/06/22 06:17:10;;;;;;;14.90;7.68;;;;;;;;;;5046923;28;20037;-70
2022/06/22 06:19:41;;;;;;;11.18;6.97;;;;;;;;;;5051803;28;20071;-71
2022/06/22 06:22:08;;;;;;;12.75;7.30;;;;;;;;;;5052149;28;20049;-72
2022/06/22 06:24:37;;;;;;;9.77;7.30;;;;;;;;;;5050112;28;20036;-71
2022/06/22 06:30:15;;;;;;;11.77;7.03;;;;;;;;;;5033207;28;20053;-69
2022/06/22 06:32:59;;;;;;;10.20;6.30;;;;;;;;;;5051544;28;20045;-70
2022/06/22 06:35:38;;;;;;;12.60;6.32;;;;;;;;;;5045564;28;20403;-71
2022/06/22 06:38:16;;;;;;;11.00;6.45;;;;;;;;;;5050363;28;20033;-71
2022/06/22 06:40:45;;;;;;;11.32;6.53;;;;;;;;;;5050891;28;20052;-70
2022/06/22 06:43:14;;;;;;;8.75;5.57;;;;;;;;;;5048118;28;20072;-71
2022/06/22 06:45:41;;;;;;;9.63;5.50;;;;;;;;;;5051614;28;20040;-72
2022/06/22 06:48:13;;;;;;;11.55;5.82;;;;;;;;;;5049927;28;20411;-71
2022/06/22 06:50:41;;;;;;;10.65;6.65;;;;;;;;;;5049867;28;20106;-71
2022/06/22 06:53:13;;;;;;;10.23;5.95;;;;;;;;;;5052121;28;20052;-70
2022/06/22 06:56:14;;;;;;;9.00;4.85;;;;;;;;;;5050703;28;20503;-71
2022/06/22 06:58:54;;;;;;;7.22;4.00;;;;;;;;;;4966766;28;20477;-71
2022/06/22 07:01:23;;;;;;;8.43;5.47;;;;;;;;;;4938500;28;20569;-72
2022/06/22 07:03:51;;;;;;;7.45;4.38;;;;;;;;;;4939263;29;20369;-70
2022/06/22 07:06:17;;;;;;;9.27;4.60;;;;;;;;;;4954715;28;20055;-72
2022/06/22 07:08:48;;;;;;;8.02;5.78;;;;;;;;;;4955522;29;20063;-71
2022/06/22 07:11:22;;;;;;;8.45;5.30;;;;;;;;;;4953497;29;20057;-71
2022/06/22 07:13:52;;;;;;;7.60;4.13;;;;;;;;;;4954319;29;20067;-71
2022/06/22 07:16:21;;;;;;;9.13;3.72;;;;;;;;;;4960163;28;20051;-71
2022/06/22 07:18:54;;;;;;;6.22;3.05;;;;;;;;;;4951450;28;20058;-71
2022/06/22 07:21:27;;;;;;;7.90;3.70;;;;;;;;;;4953263;28;20047;-70
2022/06/22 07:23:58;;;;;;;8.55;3.60;;;;;;;;;;4958963;28;20046;-70
2022/06/22 07:26:31;;;;;;;8.45;4.13;;;;;;;;;;4955028;28;20062;-70
2022/06/22 07:29:00;;;;;;;10.20;4.35;;;;;;;;;;4955192;29;20039;-70
2022/06/22 07:31:27;;;;;;;8.30;3.80;;;;;;;;;;4954206;28;20054;-71
2022/06/22 07:34:06;;;;;;;9.02;3.85;;;;;;;;;;5055465;28;20083;-70
2022/06/22 07:36:36;;;;;;;7.80;3.47;;;;;;;;;;5037223;28;20072;-70
2022/06/22 07:39:06;;;;;;;8.43;3.70;;;;;;;;;;5053277;28;20079;-70
2022/06/22 07:41:33;;;;;;;10.90;4.07;;;;;;;;;;5053682;28;20064;-71
2022/06/22 07:44:04;;;;;;;7.95;4.28;;;;;;;;;;5036902;28;20415;-70
2022/06/22 07:46:34;;;;;;;8.02;3.58;;;;;;;;;;5052981;28;20037;-70
2022/06/22 07:49:09;;;;;;;7.18;3.42;;;;;;;;;;5055146;28;20047;-70
2022/06/22 07:51:37;;;;;;;9.38;3.50;;;;;;;;;;5050667;28;20033;-71
2022/06/22 07:54:03;;;;;;;9.32;3.75;;;;;;;;;;5037988;28;20052;-70
2022/06/22 07:56:52;;;;;;;8.60;3.60;;;;;;;;;;5046814;28;20033;-71
2022/06/22 07:59:27;;;;;;;9.13;3.65;;;;;;;;;;5052121;28;20053;-71
2022/06/22 08:01:55;;;;;;;8.90;3.50;;;;;;;;;;5049657;28;20048;-71
2022/06/22 08:04:24;;;;;;;7.55;3.08;;;;;;;;;;5050601;28;20041;-71
2022/06/22 08:06:56;;;;;;;5.43;2.70;;;;;;;;;;5055970;28;20187;-70
2022/06/22 08:09:27;;;;;;;9.63;3.50;;;;;;;;;;5051624;28;20040;-70
2022/06/22 08:11:53;;;;;;;;;;;;;;;;;;5052192;28;20506;-70
2022/06/22 08:14:22;;;;;;;9.52;3.20;;;;;;;;;;5052265;28;19920;-70
2022/06/22 08:16:51;;;;;;;7.80;3.40;;;;;;;;;;5052269;28;20045;-70
2022/06/22 08:19:17;;;;;;;7.45;3.50;;;;;;;;;;5036761;28;20052;-70
2022/06/22 08:21:47;;;;;;;8.95;3.30;;;;;;;;;;5054361;28;20045;-70
2022/06/22 08:24:15;;;;;;;9.07;3.33;;;;;;;;;;5054369;28;20584;-70
2022/06/22 08:26:41;;;;;;;6.95;3.05;;;;;;;;;;5054327;28;20049;-71
2022/06/22 08:29:08;;;;;;;8.75;2.88;;;;;;;;;;5054220;28;20114;-69
2022/06/22 08:31:42;;;;;;;9.38;2.97;;;;;;;;;;5053377;28;20091;-70
2022/06/22 08:34:11;;;;;;;8.68;3.40;;;;;;;;;;5053212;28;20044;-70
2022/06/22 08:36:39;;;;;;;8.60;3.97;;;;;;;;;;5033988;28;20491;-70
2022/06/22 08:39:22;;;;;;;9.25;2.92;;;;;;;;;;5052223;28;20049;-69
2022/06/22 08:42:07;;;;;;;5.25;2.28;;;;;;;;;;5053939;28;20155;-69
2022/06/22 08:44:42;;;;;;;7.20;2.70;;;;;;;;;;5053165;28;20103;-68
2022/06/22 08:47:14;;;;;;;8.27;3.47;;;;;;;;;;5053976;28;20390;-70
2022/06/22 08:50:01;;;;;;;8.15;3.72;;;;;;;;;;5053414;28;20510;-70
2022/06/22 08:52:33;;;;;;;9.82;3.50;;;;;;;;;;5053544;28;20053;-70
2022/06/22 08:55:09;;;;;;;8.90;3.25;;;;;;;;;;5053814;28;20045;-70
2022/06/22 08:57:51;;;;;;;7.28;2.97;;;;;;;;;;5053728;28;20560;-70
2022/06/22 09:00:17;;;;;;;8.27;2.85;;;;;;;;;;5015952;28;20499;-70
2022/06/22 09:03:04;;;;;;;7.60;2.33;;;;;;;;;;5033782;28;20045;-70
2022/06/22 09:05:51;;;;;;;7.40;2.90;;;;;;;;;;5044851;28;20124;-70
2022/06/22 09:08:26;;;;;;;9.15;3.35;;;;;;;;;;5053703;28;20041;-70
2022/06/22 09:10:52;;;;;;;8.25;3.00;;;;;;;;;;5053521;28;20061;-70
2022/06/22 09:13:31;;;;;;;7.63;2.58;;;;;;;;;;5052825;28;20446;-69
2022/06/22 09:16:00;;;;;;;8.98;2.70;;;;;;;;;;5053339;28;20060;-70
2022/06/22 09:18:29;;;;;;;7.85;2.83;;;;;;;;;;5053652;28;20406;-70
2022/06/22 09:21:14;;;;;;;7.80;2.90;;;;;;;;;;5035730;28;20059;-70
2022/06/22 09:23:45;;;;;;;5.82;2.38;;;;;;;;;;5053135;28;20403;-70
2022/06/22 09:26:12;;;;;;;7.55;2.80;;;;;;;;;;5052297;28;20041;-70
2022/06/22 09:28:53;;;;;;;7.13;2.50;;;;;;;;;;5051824;28;20534;-69
2022/06/22 09:31:19;;;;;;;;;;;;;;;;;;5053602;28;20056;-71
2022/06/22 09:33:54;;;;;;;7.78;2.65;;;;;;;;;;5053211;28;19928;-71
2022/06/22 09:36:26;;;;;;;7.90;2.90;;;;;;;;;;5035304;28;20041;-69
2022/06/22 09:39:02;;;;;;;8.05;2.80;;;;;;;;;;5053298;28;20049;-69
2022/06/22 09:41:35;;;;;;;7.43;2.65;;;;;;;;;;5052557;28;20068;-70
2022/06/22 09:44:20;;;;;;;8.57;2.50;;;;;;;;;;5032997;28;20050;-69
2022/06/22 09:47:21;;;;;;;6.53;2.58;;;;;;;;;;5032797;28;20495;-70
2022/06/22 09:49:47;;;;;;;;;;;;;;;;;;4972481;28;20053;-70
2022/06/22 09:52:32;;;;;;;7.22;2.60;;;;;;;;;;4971611;28;19957;-70
2022/06/22 09:57:54;;;;;;;9.38;2.50;;;;;;;;;;4971460;28;20058;-70
2022/06/22 10:00:25;;;;;;;7.68;2.17;;;;;;;;;;4940188;28;20042;-70
2022/06/22 10:02:51;;;;;;;;;;;;;;;;;;4955855;28;20058;-69
2022/06/22 10:05:35;;;;;;;6.75;2.20;;;;;;;;;;4954060;28;20376;-69
2022/06/22 10:08:13;;;;;;;7.80;2.65;;;;;;;;;;4971671;28;20399;-70
2022/06/22 10:10:58;;;;;;;7.80;2.28;;;;;;;;;;4971778;28;20390;-70
2022/06/22 10:13:33;;;;;;;9.48;2.50;;;;;;;;;;4954229;28;20405;-70
2022/06/22 10:15:59;;;;;;;7.47;2.50;;;;;;;;;;4971794;28;20073;-70
2022/06/22 10:18:33;;;;;;;7.25;2.55;;;;;;;;;;4970893;28;20054;-69
2022/06/22 10:21:02;;;;;;;6.47;2.22;;;;;;;;;;4971384;28;20053;-70
2022/06/22 10:23:37;;;;;;;6.70;2.10;;;;;;;;;;5002749;28;20522;-71
2022/06/22 10:26:17;;;;;;;7.53;2.28;;;;;;;;;;5052698;28;20056;-70
2022/06/22 10:29:01;;;;;;;16.33;3.13;;;;;;;;;;5033878;28;20037;-69
2022/06/22 10:31:44;;;;;;;5.30;1.95;;;;;;;;;;5034054;28;20443;-70
2022/06/22 10:34:11;;;;;;;5.63;1.98;;;;;;;;;;5051385;28;20049;-70
2022/06/22 10:36:45;;;;;;;7.78;1.95;;;;;;;;;;5056410;28;20095;-70
2022/06/22 10:39:17;;;;;;;6.82;2.22;;;;;;;;;;5053880;28;20045;-71
2022/06/22 10:45:10;;;;;;;7.43;2.35;;;;;;;;;;5037105;28;20041;-71
2022/06/22 10:47:54;;;;;;;6.50;2.45;;;;;;;;;;5056199;28;20053;-69
2022/06/22 10:50:50;;;;;;;6.22;2.72;;;;;;;;;;5038084;28;20051;-71
2022/06/22 10:53:31;;;;;;;9.07;2.30;;;;;;;;;;5043222;28;20060;-70
2022/06/22 10:55:57;;;;;;;;;;;;;;;;;;5056025;28;20513;-70
2022/06/22 10:58:29;;;;;;;5.20;1.90;;;;;;;;;;5053748;28;19916;-70
2022/06/22 11:01:08;;;;;;;5.28;1.75;;;;;;;;;;5055427;28;20053;-70
2022/06/22 11:04:00;;;;;;;7.55;2.33;;;;;;;;;;5044357;28;20045;-70
2022/06/22 11:06:26;;;;;;;7.57;2.35;;;;;;;;;;5038013;28;20095;-70
2022/06/22 11:09:05;;;;;;;6.40;2.40;;;;;;;;;;5055789;28;20062;-70
2022/06/22 11:11:37;;;;;;;7.43;1.90;;;;;;;;;;5038178;28;20049;-70
2022/06/22 11:14:12;;;;;;;7.10;2.05;;;;;;;;;;5055791;28;20053;-70
2022/06/22 11:16:55;;;;;;;7.43;1.80;;;;;;;;;;5055678;28;20049;-71
2022/06/22 11:19:40;;;;;;;4.80;1.73;;;;;;;;;;5037456;28;20049;-70
2022/06/22 11:22:25;;;;;;;5.80;1.70;;;;;;;;;;5055762;28;20080;-70
2022/06/22 11:25:05;;;;;;;6.07;1.83;;;;;;;;;;5055475;28;20443;-70
2022/06/22 11:33:26;;;;;;;6.75;2.10;;;;;;;;;;5054222;28;20128;-70
2022/06/22 11:35:52;;;;;;;6.55;1.88;;;;;;;;;;5055406;28;20163;-70
2022/06/22 11:38:37;;;;;;;7.32;2.00;;;;;;;;;;5055500;28;20053;-70
2022/06/22 11:41:09;;;;;;;6.88;1.80;;;;;;;;;;5055176;28;20410;-70
2022/06/22 11:43:53;;;;;;;7.13;2.05;;;;;;;;;;5055108;28;20128;-70
2022/06/22 11:46:19;;;;;;;7.32;2.28;;;;;;;;;;5035459;28;20052;-69
2022/06/22 11:49:09;;;;;;;7.13;2.00;;;;;;;;;;5037679;28;20076;-70
2022/06/22 11:51:46;;;;;;;6.70;2.00;;;;;;;;;;5054817;28;20175;-69
2022/06/22 11:54:31;;;;;;;8.32;2.42;;;;;;;;;;5054598;28;20040;-69
2022/06/22 11:57:01;;;;;;;7.93;2.40;;;;;;;;;;5055178;28;20052;-69
2022/06/22 11:59:39;;;;;;;6.63;2.20;;;;;;;;;;5054886;28;20457;-70
2022/06/22 12:02:23;;;;;;;7.20;2.70;;;;;;;;;;5037037;28;20075;-69
2022/06/22 12:05:08;;;;;;;7.15;2.50;;;;;;;;;;5035169;28;20057;-70
2022/06/22 12:07:53;;;;;;;8.13;2.50;;;;;;;;;;5042970;28;20418;-69
2022/06/22 12:10:39;;;;;;;7.68;2.40;;;;;;;;;;5054710;28;20048;-69
2022/06/22 12:13:06;;;;;;;6.88;2.55;;;;;;;;;;5054989;28;20052;-70
2022/06/22 12:15:35;;;;;;;8.95;2.72;;;;;;;;;;5054805;28;20041;-70
2022/06/22 12:18:01;;;;;;;6.53;2.40;;;;;;;;;;5054511;28;20056;-70
2022/06/22 12:20:39;;;;;;;7.18;2.00;;;;;;;;;;5051673;28;20033;-70
2022/06/22 12:23:19;;;;;;;8.45;2.30;;;;;;;;;;5034687;28;20053;-70
2022/06/22 12:25:59;;;;;;;6.10;2.17;;;;;;;;;;5054659;28;20045;-70
2022/06/22 12:28:32;;;;;;;5.55;2.42;;;;;;;;;;5054461;28;20060;-69
2022/06/22 12:31:05;;;;;;;5.45;2.10;;;;;;;;;;5054466;28;20044;-70
2022/06/22 12:33:51;;;;;;;6.03;2.25;;;;;;;;;;5054376;28;20060;-70
2022/06/22 12:36:20;;;;;;;8.52;2.30;;;;;;;;;;5026730;28;20058;-70
2022/06/22 12:38:51;;;;;;;6.40;2.30;;;;;;;;;;5016503;28;20049;-70
2022/06/22 12:41:29;;;;;;;7.38;2.30;;;;;;;;;;5034081;28;20049;-70
2022/06/22 12:44:14;;;;;;;6.88;2.30;;;;;;;;;;5034072;28;20049;-69
2022/06/22 12:46:57;;;;;;;7.22;2.22;;;;;;;;;;5034162;28;20117;-70
2022/06/22 12:49:33;;;;;;;7.53;2.45;;;;;;;;;;5042219;28;20072;-71
2022/06/22 12:52:06;;;;;;;6.80;2.22;;;;;;;;;;5052906;28;20398;-70
2022/06/22 12:54:35;;;;;;;6.15;2.30;;;;;;;;;;5053530;28;20067;-70
2022/06/22 12:57:34;;;;;;;6.47;1.90;;;;;;;;;;5053362;28;20052;-70
2022/06/22 13:00:06;;;;;;;5.72;1.95;;;;;;;;;;4972656;28;20051;-70
2022/06/22 13:02:34;;;;;;;5.15;1.90;;;;;;;;;;4971929;28;20058;-69
2022/06/22 13:05:01;;;;;;;5.38;1.80;;;;;;;;;;4971533;28;20057;-69
2022/06/22 13:07:29;;;;;;;6.95;2.17;;;;;;;;;;4956904;28;20608;-70
2022/06/22 13:09:55;;;;;;;6.93;2.20;;;;;;;;;;4972824;28;20110;-69
2022/06/22 13:12:37;;;;;;;5.88;2.05;;;;;;;;;;4972698;28;20057;-70
2022/06/22 13:15:06;;;;;;;5.93;1.95;;;;;;;;;;4972882;28;20537;-70
2022/06/22 13:17:40;;;;;;;6.88;1.90;;;;;;;;;;4972565;28;20194;-70
2022/06/22 13:20:06;;;;;;;6.05;2.38;;;;;;;;;;4972535;28;20046;-70
2022/06/22 13:22:40;;;;;;;5.38;1.70;;;;;;;;;;4956408;28;20047;-70
2022/06/22 13:25:19;;;;;;;4.68;1.73;;;;;;;;;;4972534;28;20051;-70
2022/06/22 13:27:48;;;;;;;8.32;2.13;;;;;;;;;;4972510;28;20059;-70
2022/06/22 13:30:15;;;;;;;5.57;2.00;;;;;;;;;;4972193;28;20519;-69
2022/06/22 13:32:43;;;;;;;6.90;1.80;;;;;;;;;;4971957;28;20043;-70
2022/06/22 13:35:13;;;;;;;5.85;1.67;;;;;;;;;;4991729;28;20508;-70
2022/06/22 13:38:02;;;;;;;6.85;1.95;;;;;;;;;;5032915;28;20095;-70
2022/06/22 13:40:39;;;;;;;6.50;1.95;;;;;;;;;;5033109;28;20045;-71
2022/06/22 13:43:24;;;;;;;4.75;2.10;;;;;;;;;;5034270;28;20569;-70
2022/06/22 13:45:57;;;;;;;6.03;1.80;;;;;;;;;;5050637;28;20053;-71
2022/06/22 13:48:33;;;;;;;6.07;2.00;;;;;;;;;;5035454;28;20468;-71
2022/06/22 13:51:21;;;;;;;6.88;2.10;;;;;;;;;;5045387;28;20495;-71
2022/06/22 13:53:59;;;;;;;6.90;2.33;;;;;;;;;;5034907;28;20079;-71
2022/06/22 13:56:32;;;;;;;9.13;2.15;;;;;;;;;;5029968;28;20037;-70
2022/06/22 13:59:00;;;;;;;9.43;2.30;;;;;;;;;;5051021;28;20044;-70
2022/06/22 14:01:31;;;;;;;5.30;1.90;;;;;;;;;;5033657;28;20048;-70
2022/06/22 14:03:57;;;;;;;5.95;1.77;;;;;;;;;;5031922;28;20090;-71
2022/06/22 14:06:38;;;;;;;6.57;1.90;;;;;;;;;;5052523;28;20036;-71
2022/06/22 14:09:04;;;;;;;;;;;;;;;;;;5051565;28;20048;-70
2022/06/22 14:11:30;;;;;;;5.30;1.58;;;;;;;;;;5045806;28;20369;-71
2022/06/22 14:14:03;;;;;;;6.93;1.65;;;;;;;;;;5051065;28;20122;-71
2022/06/22 14:16:33;;;;;;;6.97;1.90;;;;;;;;;;5029908;28;20087;-71
2022/06/22 14:19:09;;;;;;;5.95;2.10;;;;;;;;;;5051337;28;20041;-70
2022/06/22 14:21:46;;;;;;;5.90;2.00;;;;;;;;;;5049981;28;20045;-71
2022/06/22 14:24:22;;;;;;;7.28;2.05;;;;;;;;;;5009627;28;20047;-70
2022/06/22 14:27:06;;;;;;;5.55;1.80;;;;;;;;;;5050476;28;20056;-71
2022/06/22 14:29:39;;;;;;;5.32;1.90;;;;;;;;;;5052232;28;20407;-70
2022/06/22 14:32:05;;;;;;;11.10;2.50;;;;;;;;;;5047157;28;20398;-70
2022/06/22 14:34:50;;;;;;;6.18;1.95;;;;;;;;;;5050953;28;20441;-70
2022/06/22 14:37:16;;;;;;;6.63;2.10;;;;;;;;;;5032257;28;20049;-71
2022/06/22 14:39:52;;;;;;;8.07;2.10;;;;;;;;;;5051746;28;20041;-71
2022/06/22 14:42:21;;;;;;;5.88;1.90;;;;;;;;;;5052734;28;20049;-76
2022/06/22 14:44:53;;;;;;;4.35;1.58;;;;;;;;;;5049710;28;20176;-70
2022/06/22 14:47:19;;;;;;;6.30;1.90;;;;;;;;;;5033305;28;20068;-71
2022/06/22 14:49:49;;;;;;;8.43;2.28;;;;;;;;;;5049291;28;20044;-70
2022/06/22 14:52:22;;;;;;;5.95;2.00;;;;;;;;;;5056858;28;20041;-70
2022/06/22 14:54:57;;;;;;;8.13;2.20;;;;;;;;;;5055205;28;20044;-69
2022/06/22 14:57:32;;;;;;;5.28;1.90;;;;;;;;;;5030717;28;20045;-70
2022/06/22 15:00:20;;;;;;;6.05;2.10;;;;;;;;;;5053957;28;20450;-70
2022/06/22 15:03:05;;;;;;;7.68;2.10;;;;;;;;;;5040616;28;20384;-70
2022/06/22 15:05:38;;;;;;;5.63;2.03;;;;;;;;;;5050874;28;20045;-70
2022/06/22 15:08:12;;;;;;;5.22;2.03;;;;;;;;;;5050548;28;20053;-70
2022/06/22 15:10:44;;;;;;;7.13;2.20;;;;;;;;;;5048301;28;20384;-70
2022/06/22 15:13:19;;;;;;;5.82;2.58;;;;;;;;;;5039207;28;20051;-70
2022/06/22 15:15:51;;;;;;;7.75;2.47;;;;;;;;;;5062615;28;20051;-70
2022/06/22 15:18:28;;;;;;;6.45;2.30;;;;;;;;;;5049796;28;20029;-70
2022/06/22 15:20:59;;;;;;;7.25;2.33;;;;;;;;;;5063774;28;20399;-71
2022/06/22 15:23:31;;;;;;;11.38;2.85;;;;;;;;;;5049433;28;20520;-70
2022/06/22 15:26:22;;;;;;;9.43;2.38;;;;;;;;;;5055139;28;20494;-71
2022/06/22 15:28:48;;;;;;;7.57;2.33;;;;;;;;;;5047674;28;20049;-70
2022/06/22 15:31:14;;;;;;;6.95;3.13;;;;;;;;;;5057551;28;20095;-71
2022/06/22 15:33:43;;;;;;;7.47;2.65;;;;;;;;;;5052348;28;20066;-71